createdAt,value
2022-08-26T00:01:31.984Z,24.15
2022-08-26T00:03:58.960Z,21.90
2022-08-26T00:06:26.309Z,20.23
2022-08-26T00:08:53.442Z,15.52
2022-08-26T00:11:26.920Z,19.55
2022-08-26T00:13:57.603Z,27.00
2022-08-26T00:16:26.311Z,17.50
2022-08-26T00:18:56.683Z,21.98
2022-08-26T00:21:23.253Z,19.67
2022-08-26T00:23:49.984Z,20.75
2022-08-26T00:26:17.049Z,17.33
2022-08-26T00:28:44.410Z,16.02
2022-08-26T00:31:11.271Z,16.67
2022-08-26T00:33:38.905Z,17.70
2022-08-26T00:36:06.629Z,12.95
2022-08-26T00:38:33.679Z,22.77
2022-08-26T00:41:00.519Z,13.90
2022-08-26T00:43:27.301Z,10.70
2022-08-26T00:46:01.220Z,23.50
2022-08-26T00:48:31.900Z,25.40
2022-08-26T00:51:21.333Z,23.10
2022-08-26T00:53:54.593Z,23.20
2022-08-26T00:56:38.403Z,17.58
2022-08-26T00:59:07.939Z,19.02
2022-08-26T01:01:34.924Z,17.38
2022-08-26T01:04:02.001Z,16.83
2022-08-26T01:06:28.883Z,15.15
2022-08-26T01:08:56.189Z,17.30
2022-08-26T01:11:24.366Z,14.40
2022-08-26T01:13:54.723Z,13.00
2022-08-26T01:16:22.569Z,19.50
2022-08-26T01:18:49.225Z,21.08
2022-08-26T01:21:23.258Z,14.13
2022-08-26T01:23:52.123Z,15.13
2022-08-26T01:26:29.004Z,22.27
2022-08-26T01:28:57.715Z,16.58
2022-08-26T01:31:27.619Z,20.50
2022-08-26T01:34:12.704Z,33.25
2022-08-26T01:36:40.043Z,15.55
2022-08-26T01:39:07.625Z,21.83
2022-08-26T01:41:35.163Z,15.90
2022-08-26T01:44:03.752Z,18.85
2022-08-26T01:46:30.987Z,17.77
2022-08-26T01:49:01.133Z,16.92
2022-08-26T01:51:28.043Z,17.35
2022-08-26T01:53:55.563Z,18.25
2022-08-26T01:56:23.601Z,19.40
2022-08-26T01:58:56.214Z,15.02
2022-08-26T02:01:24.281Z,17.55
2022-08-26T02:04:05.586Z,10.23
2022-08-26T02:06:32.954Z,24.05
2022-08-26T02:09:02.178Z,20.05
2022-08-26T02:11:29.001Z,14.55
2022-08-26T02:14:00.041Z,19.25
2022-08-26T02:16:28.015Z,21.65
2022-08-26T02:18:56.613Z,12.63
2022-08-26T02:21:26.385Z,13.60
2022-08-26T02:23:56.260Z,14.73
2022-08-26T02:26:24.597Z,22.20
2022-08-26T02:29:02.356Z,26.80
2022-08-26T02:31:29.609Z,15.40
2022-08-26T02:33:56.194Z,14.68
2022-08-26T02:36:28.583Z,22.60
2022-08-26T02:38:55.540Z,14.52
2022-08-26T02:41:23.102Z,11.73
2022-08-26T02:43:49.892Z,20.25
2022-08-26T02:46:21.428Z,15.82
2022-08-26T02:48:55.046Z,12.70
2022-08-26T02:51:21.622Z,14.25
2022-08-26T02:53:48.663Z,22.67
2022-08-26T02:56:15.307Z,15.60
2022-08-26T02:58:41.937Z,17.02
2022-08-26T03:01:08.726Z,20.23
2022-08-26T03:03:35.434Z,12.07
2022-08-26T03:06:02.241Z,16.50
2022-08-26T03:08:31.837Z,18.02
2022-08-26T03:10:59.324Z,20.88
2022-08-26T03:13:28.216Z,17.38
2022-08-26T03:15:55.233Z,16.63
2022-08-26T03:18:22.823Z,12.80
2022-08-26T03:20:50.465Z,19.20
2022-08-26T03:23:17.028Z,19.05
2022-08-26T03:25:52.755Z,20.23
2022-08-26T03:28:19.640Z,15.32
2022-08-26T03:30:48.106Z,21.95
2022-08-26T03:33:15.555Z,18.15
2022-08-26T03:35:43.619Z,16.58
2022-08-26T03:38:10.935Z,15.52
2022-08-26T03:40:38.814Z,20.38
2022-08-26T03:43:09.850Z,16.35
2022-08-26T03:45:37.158Z,20.13
2022-08-26T03:48:04.363Z,17.90
2022-08-26T03:50:34.304Z,22.55
2022-08-26T03:53:03.197Z,20.90
2022-08-26T03:55:32.171Z,18.10
2022-08-26T03:57:59.567Z,16.38
2022-08-26T04:00:26.434Z,25.73
2022-08-26T04:02:53.206Z,10.93
2022-08-26T04:05:21.740Z,18.30
2022-08-26T04:07:49.529Z,31.73
2022-08-26T04:10:19.442Z,18.73
2022-08-26T04:12:47.309Z,14.35
2022-08-26T04:15:16.061Z,15.32
2022-08-26T04:17:44.397Z,27.05
2022-08-26T04:20:14.023Z,17.23
2022-08-26T04:22:43.102Z,16.52
2022-08-26T04:25:10.474Z,17.08
2022-08-26T04:27:37.158Z,14.65
2022-08-26T04:30:05.269Z,27.30
2022-08-26T04:32:32.050Z,24.95
2022-08-26T04:34:58.638Z,19.10
2022-08-26T04:37:27.269Z,24.52
2022-08-26T04:39:54.074Z,20.55
2022-08-26T04:42:26.038Z,24.27
2022-08-26T04:44:52.864Z,16.58
2022-08-26T04:47:19.496Z,18.20
2022-08-26T04:49:46.043Z,25.10
2022-08-26T04:52:12.753Z,17.00
2022-08-26T04:54:39.473Z,20.02
2022-08-26T04:57:08.622Z,29.77
2022-08-26T04:59:39.064Z,25.52
2022-08-26T05:02:07.106Z,19.63
2022-08-26T05:04:33.852Z,21.55
2022-08-26T05:07:02.915Z,21.67
2022-08-26T05:09:29.823Z,25.23
2022-08-26T05:11:57.074Z,20.63
2022-08-26T05:14:23.584Z,24.63
2022-08-26T05:16:50.728Z,22.40
2022-08-26T05:19:19.227Z,28.05
2022-08-26T05:21:47.280Z,29.35
2022-08-26T05:24:14.211Z,20.38
2022-08-26T05:26:41.950Z,19.92
2022-08-26T05:29:11.429Z,17.17
2022-08-26T05:31:38.031Z,25.60
2022-08-26T05:34:04.785Z,19.63
2022-08-26T05:36:34.069Z,29.63
2022-08-26T05:39:02.399Z,18.40
2022-08-26T05:41:36.481Z,24.50
2022-08-26T05:44:07.713Z,23.88
2022-08-26T05:46:36.638Z,27.85
2022-08-26T05:49:04.956Z,22.73
2022-08-26T05:51:32.753Z,18.50
2022-08-26T05:54:01.737Z,24.20
2022-08-26T05:56:30.186Z,21.90
2022-08-26T05:58:58.421Z,18.80
2022-08-26T06:01:27.084Z,26.88
2022-08-26T06:03:56.886Z,23.95
2022-08-26T06:06:29.509Z,19.05
2022-08-26T06:08:59.414Z,30.35
2022-08-26T06:11:27.463Z,20.13
2022-08-26T06:13:58.915Z,20.17
2022-08-26T06:16:28.871Z,19.38
2022-08-26T06:18:55.557Z,28.25
2022-08-26T06:21:26.701Z,28.23
2022-08-26T06:24:15.000Z,20.52
2022-08-26T06:26:43.374Z,15.90
2022-08-26T06:29:24.294Z,28.17
2022-08-26T06:31:52.895Z,20.58
2022-08-26T06:34:19.940Z,20.85
2022-08-26T06:36:47.408Z,25.17
2022-08-26T06:39:15.976Z,21.90
2022-08-26T06:41:45.031Z,30.38
2022-08-26T06:44:14.762Z,31.15
2022-08-26T06:46:42.110Z,28.17
2022-08-26T06:49:12.522Z,32.28
2022-08-26T06:51:40.096Z,32.90
2022-08-26T06:54:07.275Z,19.50
2022-08-26T06:56:36.856Z,19.92
2022-08-26T06:59:04.099Z,24.88
2022-08-26T07:01:37.618Z,26.70
2022-08-26T07:04:07.858Z,26.55
2022-08-26T07:06:40.643Z,29.45
2022-08-26T07:09:09.805Z,27.48
2022-08-26T07:11:37.652Z,28.95
2022-08-26T07:14:05.356Z,30.08
2022-08-26T07:16:32.346Z,26.75
2022-08-26T07:18:59.551Z,25.02
2022-08-26T07:21:28.287Z,27.48
2022-08-26T07:24:00.057Z,29.80
2022-08-26T07:26:29.814Z,30.25
2022-08-26T07:28:58.217Z,28.80
2022-08-26T07:31:27.719Z,28.40
2022-08-26T07:33:54.384Z,24.38
2022-08-26T07:36:22.077Z,26.08
2022-08-26T07:38:49.087Z,33.72
2022-08-26T07:41:17.597Z,25.50
2022-08-26T07:43:45.499Z,32.03
2022-08-26T07:46:18.539Z,22.23
2022-08-26T07:48:53.520Z,24.88
2022-08-26T07:51:21.264Z,30.30
2022-08-26T07:53:52.314Z,26.27
2022-08-26T07:56:20.647Z,22.38
2022-08-26T07:58:51.346Z,26.92
2022-08-26T08:01:23.807Z,26.73
2022-08-26T08:03:51.886Z,34.90
2022-08-26T08:06:22.819Z,38.35
2022-08-26T08:08:54.140Z,26.95
2022-08-26T08:11:21.635Z,23.27
2022-08-26T08:13:49.698Z,20.13
2022-08-26T08:16:24.863Z,26.02
2022-08-26T08:18:53.482Z,25.17
2022-08-26T08:21:22.074Z,16.38
2022-08-26T08:23:53.843Z,28.70
2022-08-26T08:26:20.699Z,22.33
2022-08-26T08:28:47.993Z,19.25
2022-08-26T08:31:56.203Z,28.15
2022-08-26T08:34:15.742Z,18.90
2022-08-26T08:36:42.315Z,29.77
2022-08-26T08:39:09.264Z,23.15
2022-08-26T08:41:45.102Z,25.23
2022-08-26T08:44:19.243Z,26.85
2022-08-26T08:46:50.125Z,20.33
2022-08-26T08:49:17.723Z,25.55
2022-08-26T08:51:57.365Z,26.00
2022-08-26T08:54:26.469Z,30.23
2022-08-26T08:57:09.431Z,25.27
2022-08-26T08:59:41.699Z,44.65
2022-08-26T09:02:20.144Z,28.20
2022-08-26T09:05:20.943Z,25.20
2022-08-26T09:08:11.564Z,37.85
2022-08-26T09:10:49.890Z,26.10
2022-08-26T09:13:26.034Z,19.48
2022-08-26T09:16:19.068Z,21.75
2022-08-26T09:19:08.374Z,23.58
2022-08-26T09:21:34.980Z,26.50
2022-08-26T09:24:01.621Z,23.13
2022-08-26T09:26:42.487Z,23.90
2022-08-26T09:31:48.487Z,32.25
2022-08-26T09:34:27.074Z,25.95
2022-08-26T09:36:58.226Z,30.13
2022-08-26T09:39:29.630Z,31.10
2022-08-26T09:42:09.711Z,28.27
2022-08-26T09:44:53.363Z,38.03
2022-08-26T09:47:46.136Z,24.92
2022-08-26T09:50:32.136Z,29.65
2022-08-26T09:53:20.985Z,24.13
2022-08-26T09:56:10.946Z,23.73
2022-08-26T09:58:43.294Z,28.45
2022-08-26T10:01:19.441Z,26.48
2022-08-26T10:03:47.117Z,37.88
2022-08-26T10:06:18.261Z,27.65
2022-08-26T10:08:52.203Z,24.75
2022-08-26T10:11:26.617Z,32.78
2022-08-26T10:14:00.098Z,28.60
2022-08-26T10:16:44.341Z,27.92
2022-08-26T10:19:18.851Z,19.92
2022-08-26T10:22:04.471Z,31.90
2022-08-26T10:24:46.380Z,27.27
2022-08-26T10:27:36.612Z,28.70
2022-08-26T10:30:38.425Z,21.98
2022-08-26T10:33:08.468Z,25.75
2022-08-26T10:35:37.847Z,25.63
2022-08-26T10:38:10.813Z,29.48
2022-08-26T10:41:01.127Z,32.13
2022-08-26T10:43:32.803Z,30.92
2022-08-26T10:46:04.359Z,42.38
2022-08-26T10:48:43.126Z,21.38
2022-08-26T10:51:11.687Z,26.23
2022-08-26T10:54:03.250Z,28.27
2022-08-26T10:56:44.652Z,27.30
2022-08-26T10:59:24.531Z,26.02
2022-08-26T11:02:10.410Z,26.92
2022-08-26T11:04:49.323Z,27.73
2022-08-26T11:07:47.105Z,29.85
2022-08-26T11:10:19.106Z,26.45
2022-08-26T11:12:49.180Z,22.65
2022-08-26T11:15:24.510Z,26.58
2022-08-26T11:17:51.510Z,23.45
2022-08-26T11:20:29.966Z,29.52
2022-08-26T11:23:28.249Z,34.45
2022-08-26T11:26:10.262Z,40.22
2022-08-26T11:28:49.215Z,31.65
2022-08-26T11:31:19.260Z,29.10
2022-08-26T11:33:58.209Z,32.92
2022-08-26T11:36:46.663Z,11.55
2022-08-26T11:39:20.917Z,7.38
2022-08-26T11:41:49.736Z,8.88
2022-08-26T11:44:25.597Z,9.68
2022-08-26T11:46:59.997Z,10.30
2022-08-26T11:49:31.570Z,3.95
2022-08-26T11:52:11.806Z,9.13
2022-08-26T11:54:38.800Z,8.60
2022-08-26T11:57:11.913Z,8.40
2022-08-26T11:59:40.290Z,4.72
2022-08-26T12:02:13.795Z,6.60
2022-08-26T12:04:43.542Z,4.97
2022-08-26T12:07:10.356Z,9.55
2022-08-26T12:09:39.042Z,5.00
2022-08-26T12:12:17.250Z,5.13
2022-08-26T12:14:44.393Z,6.03
2022-08-26T12:17:27.565Z,4.70
2022-08-26T12:19:54.128Z,10.75
2022-08-26T12:22:34.653Z,9.55
2022-08-26T12:25:08.712Z,5.80
2022-08-26T12:27:41.623Z,18.15
2022-08-26T12:30:20.217Z,10.20
2022-08-26T12:32:57.642Z,5.82
2022-08-26T12:35:29.464Z,10.40
2022-08-26T12:37:56.511Z,7.57
2022-08-26T12:40:27.950Z,6.53
2022-08-26T12:42:55.089Z,8.60
2022-08-26T12:45:53.728Z,6.93
2022-08-26T12:48:26.409Z,6.63
2022-08-26T12:50:53.659Z,6.20
2022-08-26T12:53:22.491Z,7.55
2022-08-26T12:55:52.296Z,5.78
2022-08-26T12:58:21.971Z,4.68
2022-08-26T13:01:02.610Z,7.85
2022-08-26T13:03:35.418Z,9.45
2022-08-26T13:06:16.488Z,11.57
2022-08-26T13:08:57.908Z,7.95
2022-08-26T13:11:30.575Z,6.45
2022-08-26T13:14:07.163Z,13.00
2022-08-26T13:16:34.453Z,15.73
2022-08-26T13:19:04.202Z,10.20
2022-08-26T13:21:37.338Z,11.95
2022-08-26T13:24:15.438Z,9.13
2022-08-26T13:26:43.528Z,10.13
2022-08-26T13:29:11.031Z,11.25
2022-08-26T13:31:39.889Z,13.15
2022-08-26T13:34:08.290Z,18.08
2022-08-26T13:36:34.864Z,6.68
2022-08-26T13:39:01.478Z,11.75
2022-08-26T13:41:29.445Z,9.65
2022-08-26T13:43:56.754Z,9.57
2022-08-26T13:46:26.309Z,5.35
2022-08-26T13:48:54.615Z,6.53
2022-08-26T13:51:22.913Z,17.75
2022-08-26T13:53:50.217Z,15.93
2022-08-26T13:56:16.867Z,6.75
2022-08-26T13:58:47.922Z,10.68
2022-08-26T14:01:17.562Z,9.88
2022-08-26T14:03:44.758Z,10.20
2022-08-26T14:06:11.695Z,12.50
2022-08-26T14:08:39.185Z,13.93
2022-08-26T14:11:06.254Z,11.18
2022-08-26T14:13:32.892Z,12.35
2022-08-26T14:16:01.578Z,10.68
2022-08-26T14:18:31.130Z,12.63
2022-08-26T14:20:59.004Z,9.55
2022-08-26T14:23:26.232Z,18.50
2022-08-26T14:25:53.085Z,13.80
2022-08-26T14:28:19.787Z,9.40
2022-08-26T14:30:53.353Z,11.23
2022-08-26T14:33:29.182Z,18.20
2022-08-26T14:36:15.767Z,24.08
2022-08-26T14:38:42.353Z,25.02
2022-08-26T14:41:09.596Z,17.70
2022-08-26T14:43:37.348Z,16.65
2022-08-26T14:46:04.390Z,17.90
2022-08-26T14:48:30.971Z,22.77
2022-08-26T14:50:57.561Z,20.17
2022-08-26T14:53:42.859Z,13.20
2022-08-26T14:56:12.633Z,16.55
2022-08-26T14:58:41.617Z,15.90
2022-08-26T15:01:08.146Z,16.98
2022-08-26T15:03:34.749Z,12.60
2022-08-26T15:06:01.390Z,12.50
2022-08-26T15:08:27.994Z,12.32
2022-08-26T15:10:54.629Z,13.93
2022-08-26T15:13:21.171Z,14.00
2022-08-26T15:15:47.750Z,14.52
2022-08-26T15:18:14.558Z,8.80
2022-08-26T15:20:41.154Z,9.90
2022-08-26T15:23:08.154Z,17.80
2022-08-26T15:25:34.979Z,9.25
2022-08-26T15:28:01.619Z,11.30
2022-08-26T15:30:28.236Z,12.73
2022-08-26T15:32:54.872Z,12.50
2022-08-26T15:35:21.487Z,11.07
2022-08-26T15:37:48.124Z,20.27
2022-08-26T15:40:14.856Z,8.10
2022-08-26T15:42:41.421Z,12.38
2022-08-26T15:45:08.264Z,10.50
2022-08-26T15:47:46.630Z,9.10
2022-08-26T15:50:22.095Z,8.88
2022-08-26T15:52:48.737Z,7.75
2022-08-26T15:55:15.300Z,7.88
2022-08-26T15:57:42.144Z,8.63
2022-08-26T16:00:09.604Z,8.18
2022-08-26T16:02:36.237Z,9.20
2022-08-26T16:05:02.949Z,11.57
2022-08-26T16:07:29.611Z,8.55
2022-08-26T16:09:56.891Z,11.93
2022-08-26T16:12:23.531Z,12.18
2022-08-26T16:14:51.595Z,9.07
2022-08-26T16:17:20.288Z,12.77
2022-08-26T16:19:47.229Z,9.45
2022-08-26T16:22:13.867Z,13.07
2022-08-26T16:24:40.490Z,10.48
2022-08-26T16:27:07.244Z,8.00
2022-08-26T16:29:33.874Z,13.43
2022-08-26T16:32:00.470Z,12.68
2022-08-26T16:34:27.228Z,9.93
2022-08-26T16:36:54.183Z,12.57
2022-08-26T16:39:20.922Z,10.32
2022-08-26T16:41:47.486Z,9.30
2022-08-26T16:44:14.103Z,9.38
2022-08-26T16:46:41.253Z,11.48
2022-08-26T16:49:08.091Z,12.45
2022-08-26T16:51:37.923Z,11.55
2022-08-26T16:54:05.205Z,11.93
2022-08-26T16:56:34.537Z,15.15
2022-08-26T16:59:03.285Z,9.85
2022-08-26T17:01:30.044Z,16.77
2022-08-26T17:03:58.533Z,9.35
2022-08-26T17:06:25.119Z,11.90
2022-08-26T17:08:53.134Z,9.93
2022-08-26T17:11:19.847Z,11.65
2022-08-26T17:13:46.493Z,11.48
2022-08-26T17:16:13.707Z,21.38
2022-08-26T17:18:40.602Z,12.63
2022-08-26T17:21:09.668Z,13.35
2022-08-26T17:23:38.871Z,10.18
2022-08-26T17:26:05.888Z,10.93
2022-08-26T17:28:32.723Z,13.95
2022-08-26T17:30:59.856Z,11.88
2022-08-26T17:33:27.262Z,21.35
2022-08-26T17:35:54.896Z,16.25
2022-08-26T17:38:21.628Z,13.45
2022-08-26T17:40:49.194Z,11.85
2022-08-26T17:43:16.142Z,13.93
2022-08-26T17:45:43.402Z,12.55
2022-08-26T17:48:11.218Z,15.20
2022-08-26T17:50:40.143Z,14.50
2022-08-26T17:53:06.966Z,12.13
2022-08-26T17:55:33.648Z,15.98
2022-08-26T17:58:00.199Z,16.98
2022-08-26T18:00:30.507Z,11.80
2022-08-26T18:02:57.120Z,19.25
2022-08-26T18:05:23.869Z,19.55
2022-08-26T18:07:51.518Z,14.52
2022-08-26T18:10:19.168Z,12.85
2022-08-26T18:12:47.303Z,12.38
2022-08-26T18:15:15.452Z,15.90
2022-08-26T18:17:42.118Z,21.45
2022-08-26T18:20:10.653Z,14.05
2022-08-26T18:22:37.307Z,17.10
2022-08-26T18:25:05.142Z,21.38
2022-08-26T18:27:31.826Z,16.60
2022-08-26T18:29:58.387Z,15.40
2022-08-26T18:32:24.995Z,13.82
2022-08-26T18:34:51.725Z,21.80
2022-08-26T18:37:18.223Z,15.18
2022-08-26T18:39:44.770Z,15.98
2022-08-26T18:42:11.434Z,15.70
2022-08-26T18:44:38.001Z,18.08
2022-08-26T18:47:04.900Z,17.40
2022-08-26T18:49:31.820Z,16.65
2022-08-26T18:51:58.399Z,21.95
2022-08-26T18:54:24.992Z,20.92
2022-08-26T18:56:51.864Z,17.98
2022-08-26T18:59:18.550Z,19.10
2022-08-26T19:01:45.552Z,19.00
2022-08-26T19:04:15.410Z,19.80
2022-08-26T19:06:43.986Z,17.67
2022-08-26T19:09:11.768Z,24.20
2022-08-26T19:11:43.194Z,18.35
2022-08-26T19:14:13.674Z,17.98
2022-08-26T19:16:42.629Z,16.08
2022-08-26T19:19:09.436Z,19.83
2022-08-26T19:21:37.093Z,15.30
2022-08-26T19:24:07.279Z,13.80
2022-08-26T19:26:34.329Z,13.65
2022-08-26T19:29:01.301Z,19.60
2022-08-26T19:31:28.494Z,15.80
2022-08-26T19:33:56.738Z,18.95
2022-08-26T19:36:25.429Z,14.38
2022-08-26T19:38:52.742Z,12.27
2022-08-26T19:41:25.474Z,13.77
2022-08-26T19:43:58.568Z,13.05
2022-08-26T19:46:26.562Z,13.95
2022-08-26T19:48:55.721Z,15.18
2022-08-26T19:51:27.539Z,15.38
2022-08-26T19:53:56.431Z,14.02
2022-08-26T19:56:23.273Z,16.02
2022-08-26T19:58:50.648Z,15.30
2022-08-26T20:01:18.721Z,14.25
2022-08-26T20:03:45.628Z,14.95
2022-08-26T20:06:13.921Z,16.98
2022-08-26T20:08:41.193Z,14.32
2022-08-26T20:11:11.939Z,15.20
2022-08-26T20:13:40.214Z,14.13
2022-08-26T20:16:07.671Z,12.32
2022-08-26T20:18:52.802Z,16.08
2022-08-26T20:21:28.249Z,11.23
2022-08-26T20:24:00.891Z,10.25
2022-08-26T20:26:32.391Z,10.68
2022-08-26T20:28:59.263Z,10.77
2022-08-26T20:31:26.438Z,10.82
2022-08-26T20:33:53.685Z,10.80
2022-08-26T20:36:22.052Z,16.55
2022-08-26T20:38:49.718Z,11.45
2022-08-26T20:41:17.056Z,13.57
2022-08-26T20:43:44.220Z,12.38
2022-08-26T20:46:17.786Z,13.73
2022-08-26T20:48:46.828Z,11.93
2022-08-26T20:51:13.628Z,10.63
2022-08-26T20:53:40.376Z,12.07
2022-08-26T20:56:09.249Z,10.90
2022-08-26T20:58:37.073Z,10.77
2022-08-26T21:01:07.788Z,10.77
2022-08-26T21:03:35.394Z,12.32
2022-08-26T21:06:03.843Z,11.07
2022-08-26T21:08:33.104Z,17.08
2022-08-26T21:11:00.633Z,11.20
2022-08-26T21:13:29.004Z,15.80
2022-08-26T21:15:59.716Z,14.13
2022-08-26T21:18:26.375Z,13.63
2022-08-26T21:20:52.973Z,11.07
2022-08-26T21:23:19.611Z,13.35
2022-08-26T21:25:46.922Z,17.73
2022-08-26T21:28:13.762Z,11.93
2022-08-26T21:30:40.962Z,11.77
2022-08-26T21:33:08.073Z,11.50
2022-08-26T21:35:34.807Z,14.70
2022-08-26T21:38:01.596Z,14.73
2022-08-26T21:40:28.343Z,12.88
2022-08-26T21:42:54.973Z,13.45
2022-08-26T21:45:21.705Z,12.88
2022-08-26T21:47:48.454Z,12.13
2022-08-26T21:50:17.994Z,15.55
2022-08-26T21:52:44.578Z,13.52
2022-08-26T21:55:11.555Z,13.25
2022-08-26T21:57:38.450Z,11.32
2022-08-26T22:00:09.123Z,11.10
2022-08-26T22:02:37.122Z,12.40
2022-08-26T22:05:04.196Z,11.45
2022-08-26T22:07:30.827Z,12.90
2022-08-26T22:09:57.388Z,11.63
2022-08-26T22:12:23.953Z,16.10
2022-08-26T22:14:50.560Z,14.23
2022-08-26T22:17:17.178Z,11.05
2022-08-26T22:19:46.332Z,13.02
2022-08-26T22:22:13.368Z,12.23
2022-08-26T22:24:40.109Z,14.63
2022-08-26T22:27:06.883Z,13.02
2022-08-26T22:29:33.505Z,12.50
2022-08-26T22:32:01.188Z,11.95
2022-08-26T22:34:28.370Z,14.07
2022-08-26T22:36:55.197Z,11.02
2022-08-26T22:39:24.336Z,12.60
2022-08-26T22:41:52.798Z,12.18
2022-08-26T22:44:20.710Z,11.38
2022-08-26T22:46:48.365Z,12.10
2022-08-26T22:49:16.622Z,11.85
2022-08-26T22:51:44.560Z,11.82
2022-08-26T22:54:11.257Z,11.43
2022-08-26T22:56:38.173Z,10.10
2022-08-26T22:59:06.963Z,11.95
2022-08-26T23:01:42.515Z,11.60
2022-08-26T23:04:09.542Z,10.23
2022-08-26T23:06:37.724Z,11.13
2022-08-26T23:09:06.364Z,10.32
2022-08-26T23:11:33.031Z,14.25
2022-08-26T23:14:02.919Z,11.20
2022-08-26T23:16:39.321Z,10.77
2022-08-26T23:19:06.958Z,13.30
2022-08-26T23:21:33.548Z,11.60
2022-08-26T23:24:01.091Z,12.32
2022-08-26T23:26:28.236Z,11.45
2022-08-26T23:28:55.308Z,14.15
2022-08-26T23:31:21.977Z,12.85
2022-08-26T23:34:07.147Z,11.20
2022-08-26T23:36:34.920Z,15.93
2022-08-26T23:39:01.908Z,11.55
2022-08-26T23:41:28.515Z,11.60
2022-08-26T23:43:55.174Z,14.25
2022-08-26T23:46:21.857Z,13.27
2022-08-26T23:48:48.424Z,15.52
2022-08-26T23:51:34.305Z,16.00
2022-08-26T23:54:00.914Z,13.48
2022-08-26T23:56:29.177Z,13.60
2022-08-26T23:58:55.812Z,14.05
